createdAt,value
2022-08-26T00:02:30.764Z,53.60
2022-08-26T00:07:37.910Z,53.51
2022-08-26T00:12:45.091Z,53.44
2022-08-26T00:17:52.368Z,53.39
2022-08-26T00:22:59.580Z,53.26
2022-08-26T00:28:06.794Z,52.99
2022-08-26T00:33:14.051Z,52.65
2022-08-26T00:38:21.291Z,52.54
2022-08-26T00:43:28.492Z,52.77
2022-08-26T00:48:35.691Z,52.90
2022-08-26T00:53:42.848Z,52.97
2022-08-26T00:58:50.004Z,52.82
2022-08-26T01:03:57.219Z,52.55
2022-08-26T01:09:04.430Z,52.34
2022-08-26T01:14:11.602Z,52.32
2022-08-26T01:19:18.765Z,52.16
2022-08-26T01:24:25.983Z,51.89
2022-08-26T01:29:33.154Z,51.91
2022-08-26T01:34:40.349Z,51.87
2022-08-26T01:39:47.590Z,51.72
2022-08-26T01:44:54.706Z,51.69
2022-08-26T01:50:02.831Z,51.86
2022-08-26T01:55:09.112Z,51.99
2022-08-26T02:00:16.316Z,51.99
2022-08-26T02:05:23.450Z,52.07
2022-08-26T02:10:30.642Z,52.19
2022-08-26T02:15:37.849Z,51.92
2022-08-26T02:20:45.105Z,51.87
2022-08-26T02:25:55.102Z,51.90
2022-08-26T02:31:02.706Z,51.93
2022-08-26T02:36:09.487Z,51.96
2022-08-26T02:41:16.739Z,51.98
2022-08-26T02:46:27.868Z,51.97
2022-08-26T02:51:31.264Z,52.21
2022-08-26T02:56:38.443Z,52.12
2022-08-26T03:01:45.680Z,52.01
2022-08-26T03:06:53.139Z,51.83
2022-08-26T03:12:00.183Z,51.77
2022-08-26T03:17:07.370Z,51.83
2022-08-26T03:22:14.705Z,52.19
2022-08-26T03:27:21.856Z,51.99
2022-08-26T03:32:29.043Z,51.89
2022-08-26T03:37:36.289Z,51.83
2022-08-26T03:42:45.420Z,51.77
2022-08-26T03:47:51.754Z,51.86
2022-08-26T03:52:58.986Z,51.87
2022-08-26T03:58:06.258Z,51.99
2022-08-26T04:03:18.632Z,52.43
2022-08-26T04:08:22.670Z,52.19
2022-08-26T04:13:29.937Z,52.22
2022-08-26T04:18:37.370Z,52.38
2022-08-26T04:23:47.511Z,52.19
2022-08-26T04:28:53.136Z,52.34
2022-08-26T04:34:00.367Z,52.49
2022-08-26T04:39:07.628Z,52.44
2022-08-26T04:44:14.921Z,52.38
2022-08-26T04:49:22.185Z,52.59
2022-08-26T04:54:29.416Z,52.57
2022-08-26T04:59:39.336Z,52.64
2022-08-26T05:04:43.817Z,52.71
2022-08-26T05:09:51.081Z,52.81
2022-08-26T05:14:58.383Z,52.96
2022-08-26T05:20:05.536Z,53.03
2022-08-26T05:25:12.739Z,53.43
2022-08-26T05:30:19.906Z,53.28
2022-08-26T05:35:27.104Z,53.52
2022-08-26T05:40:34.345Z,54.20
2022-08-26T05:45:45.820Z,54.57
2022-08-26T05:50:48.699Z,54.71
2022-08-26T05:55:55.848Z,54.83
2022-08-26T06:01:03.225Z,54.97
2022-08-26T06:06:10.594Z,55.44
2022-08-26T06:11:18.600Z,55.80
2022-08-26T06:16:24.897Z,56.53
2022-08-26T06:21:32.070Z,55.70
2022-08-26T06:26:39.247Z,55.48
2022-08-26T06:31:46.502Z,55.41
2022-08-26T06:36:53.665Z,55.32
2022-08-26T06:42:00.912Z,55.12
2022-08-26T06:47:08.166Z,55.07
2022-08-26T06:52:17.982Z,54.63
2022-08-26T06:57:22.668Z,54.55
2022-08-26T07:02:29.906Z,54.31
2022-08-26T07:07:37.107Z,54.07
2022-08-26T07:12:47.266Z,53.93
2022-08-26T07:17:51.461Z,53.86
2022-08-26T07:22:58.656Z,53.75
2022-08-26T07:28:05.861Z,53.52
2022-08-26T07:33:13.106Z,53.42
2022-08-26T07:38:20.306Z,53.25
2022-08-26T07:43:27.535Z,53.09
2022-08-26T07:48:34.788Z,52.87
2022-08-26T07:53:42.014Z,52.98
2022-08-26T07:58:51.885Z,52.92
2022-08-26T08:03:56.528Z,52.82
2022-08-26T08:09:03.717Z,52.90
2022-08-26T08:14:11.899Z,52.85
2022-08-26T08:19:18.195Z,52.99
2022-08-26T08:24:25.372Z,52.96
2022-08-26T08:29:32.598Z,52.99
2022-08-26T08:39:49.214Z,52.87
2022-08-26T08:44:56.227Z,52.88
2022-08-26T08:50:04.035Z,52.84
2022-08-26T08:55:14.826Z,52.71
2022-08-26T09:00:18.447Z,52.61
2022-08-26T09:05:25.654Z,52.44
2022-08-26T09:10:32.983Z,52.03
2022-08-26T09:15:40.146Z,52.37
2022-08-26T09:20:47.320Z,52.48
2022-08-26T09:31:01.755Z,52.76
2022-08-26T09:36:08.911Z,52.35
2022-08-26T09:41:16.125Z,52.80
2022-08-26T09:46:23.402Z,52.35
2022-08-26T09:51:30.567Z,52.29
2022-08-26T09:56:37.737Z,52.46
2022-08-26T10:01:45.354Z,52.31
2022-08-26T10:06:52.120Z,52.32
2022-08-26T10:11:59.309Z,52.61
2022-08-26T10:17:06.955Z,52.20
2022-08-26T10:22:13.676Z,52.16
2022-08-26T10:27:20.845Z,52.34
2022-08-26T10:32:28.071Z,52.52
2022-08-26T10:37:35.226Z,53.35
2022-08-26T10:42:42.408Z,53.99
2022-08-26T10:47:49.639Z,54.60
2022-08-26T10:52:56.867Z,54.15
2022-08-26T10:58:05.010Z,55.10
2022-08-26T11:03:21.644Z,54.42
2022-08-26T11:08:18.521Z,54.54
2022-08-26T11:13:25.766Z,54.74
2022-08-26T11:18:32.994Z,53.52
2022-08-26T11:23:40.363Z,53.22
2022-08-26T11:28:47.374Z,53.49
2022-08-26T11:33:54.571Z,53.85
2022-08-26T11:39:02.780Z,53.88
2022-08-26T11:44:09.041Z,53.62
2022-08-26T11:49:16.202Z,53.76
2022-08-26T11:54:32.901Z,53.89
2022-08-26T11:59:30.728Z,53.97
2022-08-26T12:04:38.019Z,53.39
2022-08-26T12:09:47.455Z,53.28
2022-08-26T12:14:54.664Z,53.28
2022-08-26T12:20:01.855Z,53.16
2022-08-26T12:25:09.012Z,52.84
2022-08-26T12:30:17.982Z,53.02
2022-08-26T12:35:23.403Z,53.19
2022-08-26T12:40:30.710Z,53.34
2022-08-26T12:45:37.789Z,53.23
2022-08-26T12:50:47.046Z,53.51
2022-08-26T12:55:54.255Z,53.33
2022-08-26T13:01:01.661Z,53.31
2022-08-26T13:06:08.717Z,53.30
2022-08-26T13:11:15.960Z,53.44
2022-08-26T13:16:23.274Z,53.45
2022-08-26T13:21:32.034Z,53.69
2022-08-26T13:26:37.582Z,53.75
2022-08-26T13:31:45.102Z,53.68
2022-08-26T13:36:52.050Z,53.67
2022-08-26T13:41:59.317Z,53.72
2022-08-26T13:47:06.512Z,53.66
2022-08-26T13:52:13.686Z,53.53
2022-08-26T13:57:21.566Z,53.54
2022-08-26T14:02:28.747Z,53.54
2022-08-26T14:07:35.944Z,53.60
2022-08-26T14:12:43.124Z,53.73
2022-08-26T14:17:50.321Z,53.82
2022-08-26T14:23:13.096Z,53.89
2022-08-26T14:28:04.722Z,53.76
2022-08-26T14:33:11.972Z,54.38
2022-08-26T14:38:19.156Z,54.38
2022-08-26T14:43:26.330Z,54.05
2022-08-26T14:48:33.519Z,54.31
2022-08-26T14:53:40.798Z,54.26
2022-08-26T14:58:48.017Z,54.24
2022-08-26T15:03:55.192Z,54.40
2022-08-26T15:09:02.519Z,54.25
2022-08-26T15:14:19.066Z,54.14
2022-08-26T15:19:16.828Z,54.22
2022-08-26T15:24:24.153Z,54.20
2022-08-26T15:29:31.405Z,54.35
2022-08-26T15:34:38.615Z,54.11
2022-08-26T15:39:45.882Z,54.08
2022-08-26T15:44:53.066Z,54.28
2022-08-26T15:50:01.376Z,54.20
2022-08-26T15:55:08.647Z,54.30
2022-08-26T16:00:15.838Z,54.28
2022-08-26T16:05:23.202Z,54.54
2022-08-26T16:10:30.418Z,54.73
2022-08-26T16:15:37.757Z,55.07
2022-08-26T16:20:44.894Z,55.62
2022-08-26T16:25:52.176Z,55.85
2022-08-26T16:30:59.491Z,55.71
2022-08-26T16:36:06.621Z,55.93
2022-08-26T16:41:13.799Z,56.08
2022-08-26T16:46:21.050Z,56.26
2022-08-26T16:51:28.279Z,56.22
2022-08-26T16:56:35.459Z,56.24
2022-08-26T17:01:42.691Z,55.21
2022-08-26T17:06:49.829Z,54.65
2022-08-26T17:11:57.021Z,52.28
2022-08-26T17:17:04.305Z,51.77
2022-08-26T17:22:11.503Z,50.90
2022-08-26T17:27:18.754Z,50.55
2022-08-26T17:32:26.553Z,50.41
2022-08-26T17:37:33.735Z,50.46
2022-08-26T17:42:41.048Z,50.45
2022-08-26T17:47:48.210Z,50.75
2022-08-26T17:52:55.410Z,51.22
2022-08-26T17:58:04.004Z,51.24
2022-08-26T18:03:10.016Z,51.13
2022-08-26T18:08:17.046Z,51.25
2022-08-26T18:13:24.229Z,52.16
2022-08-26T18:18:31.412Z,53.04
2022-08-26T18:23:41.718Z,52.48
2022-08-26T18:28:49.002Z,52.74
2022-08-26T18:33:56.181Z,52.78
2022-08-26T18:39:03.355Z,53.09
2022-08-26T18:44:13.669Z,52.85
2022-08-26T18:49:17.774Z,53.13
2022-08-26T18:54:25.075Z,53.03
2022-08-26T18:59:32.383Z,53.15
2022-08-26T19:04:39.794Z,53.57
2022-08-26T19:09:47.444Z,54.57
2022-08-26T19:14:54.825Z,54.81
2022-08-26T19:20:02.323Z,54.44
2022-08-26T19:25:09.939Z,54.10
2022-08-26T19:30:17.560Z,53.96
2022-08-26T19:35:25.088Z,53.92
2022-08-26T19:40:32.737Z,54.56
2022-08-26T19:45:40.187Z,54.25
2022-08-26T19:50:47.686Z,55.38
2022-08-26T19:55:55.198Z,55.98
2022-08-26T20:01:02.869Z,56.69
2022-08-26T20:06:10.431Z,56.76
2022-08-26T20:11:17.832Z,56.73
2022-08-26T20:16:25.336Z,56.79
2022-08-26T20:21:32.962Z,56.11
2022-08-26T20:26:40.474Z,56.26
2022-08-26T20:31:47.909Z,56.44
2022-08-26T20:36:55.730Z,56.57
2022-08-26T20:42:02.954Z,56.63
2022-08-26T20:47:10.231Z,56.48
2022-08-26T20:52:17.446Z,56.69
2022-08-26T20:57:24.706Z,56.53
2022-08-26T21:02:31.987Z,56.82
2022-08-26T21:07:39.224Z,56.89
2022-08-26T21:12:46.458Z,56.98
2022-08-26T21:17:53.649Z,56.79
2022-08-26T21:23:00.826Z,56.87
2022-08-26T21:28:08.126Z,56.74
2022-08-26T21:33:15.293Z,56.81
2022-08-26T21:38:22.476Z,56.89
2022-08-26T21:43:35.517Z,56.79
2022-08-26T21:48:36.867Z,57.01
2022-08-26T21:53:44.141Z,57.07
2022-08-26T21:58:52.469Z,57.30
2022-08-26T22:03:58.506Z,57.39
2022-08-26T22:09:05.696Z,57.48
2022-08-26T22:14:12.979Z,57.59
2022-08-26T22:19:20.273Z,57.54
2022-08-26T22:24:29.074Z,57.56
2022-08-26T22:29:36.368Z,57.69
2022-08-26T22:34:43.647Z,57.72
2022-08-26T22:39:50.941Z,57.71
2022-08-26T22:44:58.108Z,57.53
2022-08-26T22:50:05.326Z,56.93
2022-08-26T22:55:12.573Z,57.70
2022-08-26T23:00:19.768Z,57.62
2022-08-26T23:05:26.995Z,57.79
2022-08-26T23:10:34.229Z,57.48
2022-08-26T23:15:41.414Z,57.47
2022-08-26T23:20:49.307Z,57.24
2022-08-26T23:25:56.581Z,57.50
2022-08-26T23:31:03.773Z,57.52
2022-08-26T23:36:14.628Z,57.42
2022-08-26T23:41:18.141Z,57.69
2022-08-26T23:46:25.338Z,57.16
2022-08-26T23:51:32.617Z,57.69
2022-08-26T23:56:39.818Z,57.78
